Terminal Aerodrome Forecast
Issued by NWS Omaha/Valley, NE

Home | Current Version | Previous Version | Graphics & Text | Print | Product List | Glossary On
Versions: 1 2 3 4 5 6 7 8 9 10 11 12 13 14 15 16 17 18 19 20 21 22 23 24 25 26 27 28 29 30 31 32 33 34 35 36 37 38 39 40 41 42 43 44 45 46 47
000
FTUS43 KOAX 011534 AAB
TAFOFK
TAF AMD
KOFK 011534Z 0116/0212 09008KT 4SM HZ BKN010
      TEMPO 0116/0119 6SM HZ BKN015
     FM020200 10005KT P6SM OVC150 PROB30 0202/0206 5SM -TSRA
      BKN050CB
     FM020600 11006KT P6SM OVC100 PROB30 0206/0212 5SM -TSRA
      BKN050CB=

USA.gov is the U.S. government's official web portal to all federal, state and local government web resources and services.